Archival Weather

Southern Wisconsin Rgnl

Janesville, Wisconsin (KJVL)

Report from: Tuesday, June 6, 2023 11:15 PM CDT
Current time: Tuesday, July 16, 2024 11:12 AM CDT

Current weather – Weather history – Daily summaries
Weather forecast

Temperature18.0°C (64.4°F)
Dew point-2.0°C (28.4°F)
Winds 9 kts (4.6 m/s, 10.4 mph) East-Northeast (60°)
Visibility10 mi. (16.1 km)
Clouds Scattered clouds 3,400 ft. (1,036 m)
Ceiling: Broken clouds 6,500 ft. (1,981 m)
Overcast 8,000 ft. (2,438 m)
Altimeter29.94 in.Hg (1014 mB)
Relative humidity26 %
Density altitude416 ft. (127 m)
Remarks Fully automated report
Automated weather observing station with precipitation discriminator
Flight conditions Visual Meteorological Conditions
Raw dataKJVL 070415Z AUTO 06009KT 10SM SCT034 BKN065 OVC080 18/M02 A2994 RMK AO2
An error has occurred. This application may no longer respond until reloaded. Reload 🗙